Edenderry, Ireland
Current Conditions -  °F | °C
As of 7:00 AM on Wednesday 26 Nov 2014 (Local Time) from EIME Reporting Station
Moderate Fog Moderate Fog  
Wind Chill: 30°   Ceiling: Unl
Heat Index: 34°   Visibility: 0.5mi
Dew Point: 32°   Wind: 5mph
Humidity: 93%   Direction: 220°SW
Pressure: 29.97"   Gusts: NA
Location:  53.34°N, 7.05°W
Report Text: EIME 260700Z 22004KT 0800 FG SCT001 01/00 Q1015
Loading
Personal Weather Stations






























Interactive Weather Map New forecast layout! Learn more

10-Day Weather Forecast

Advertisements
Track Severe Weather on mobile